sensor_id;sensor_type;location;lat;lon;timestamp;P1;P2;P0
72918;PMS7003;61063;55.700;26.994;2022-08-19T00:03:27;10;8.8;7.3
72918;PMS7003;61063;55.700;26.994;2022-08-19T00:08:17;9.6;9;7.3
72918;PMS7003;61063;55.700;26.994;2022-08-19T00:13:19;10.7;9.1;7.5
72918;PMS7003;61063;55.700;26.994;2022-08-19T00:18:19;9.2;8.2;6.8
72918;PMS7003;61063;55.700;26.994;2022-08-19T00:23:35;10.2;8.7;7.1
72918;PMS7003;61063;55.700;26.994;2022-08-19T00:28:13;9.3;8.4;6.7
72918;PMS7003;61063;55.700;26.994;2022-08-19T00:33:19;9;8.2;6.8
72918;PMS7003;61063;55.700;26.994;2022-08-19T00:38:21;8.8;7.3;5.7
72918;PMS7003;61063;55.700;26.994;2022-08-19T00:43:33;9.5;8.1;6.6
72918;PMS7003;61063;55.700;26.994;2022-08-19T00:48:33;9.8;8.7;7.1
72918;PMS7003;61063;55.700;26.994;2022-08-19T00:53:35;9.5;8.4;7
72918;PMS7003;61063;55.700;26.994;2022-08-19T00:58:33;9.3;8.6;7.2
72918;PMS7003;61063;55.700;26.994;2022-08-19T01:23:33;10.8;8.6;7.4
72918;PMS7003;61063;55.700;26.994;2022-08-19T01:28:26;9.5;8.6;6.7
72918;PMS7003;61063;55.700;26.994;2022-08-19T01:33:15;9.8;8.2;6.6
72918;PMS7003;61063;55.700;26.994;2022-08-19T01:38:27;9.4;8.1;6.5
72918;PMS7003;61063;55.700;26.994;2022-08-19T01:43:25;9.7;8.5;6.8
72918;PMS7003;61063;55.700;26.994;2022-08-19T01:48:05;10;8.9;7.1
72918;PMS7003;61063;55.700;26.994;2022-08-19T01:53:27;7.4;7.3;6.1
72918;PMS7003;61063;55.700;26.994;2022-08-19T01:58:39;10;8.9;7.1
72918;PMS7003;61063;55.700;26.994;2022-08-19T02:23:29;10;8.9;7.1
72918;PMS7003;61063;55.700;26.994;2022-08-19T02:28:09;9.5;8.2;6.7
72918;PMS7003;61063;55.700;26.994;2022-08-19T02:33:37;9.8;8.4;6.8
72918;PMS7003;61063;55.700;26.994;2022-08-19T02:38:37;9.8;8.6;7.1
72918;PMS7003;61063;55.700;26.994;2022-08-19T02:43:37;9.8;8.6;7.1
72918;PMS7003;61063;55.700;26.994;2022-08-19T02:58:37;9.8;8.6;7.1
72918;PMS7003;61063;55.700;26.994;2022-08-19T03:03:19;9.1;8.2;6.5
72918;PMS7003;61063;55.700;26.994;2022-08-19T03:08:11;8.9;7.9;6.5
72918;PMS7003;61063;55.700;26.994;2022-08-19T03:13:35;9.5;7.8;6.2
72918;PMS7003;61063;55.700;26.994;2022-08-19T03:18:35;8.5;7.8;6.7
72918;PMS7003;61063;55.700;26.994;2022-08-19T03:23:21;9.1;8.1;6.6
72918;PMS7003;61063;55.700;26.994;2022-08-19T03:28:37;9.4;8.5;6.9
72918;PMS7003;61063;55.700;26.994;2022-08-19T03:33:35;9.4;8.1;6.5
72918;PMS7003;61063;55.700;26.994;2022-08-19T03:38:38;9.2;8.4;7
72918;PMS7003;61063;55.700;26.994;2022-08-19T03:43:39;9.5;8.3;6.8
72918;PMS7003;61063;55.700;26.994;2022-08-19T03:48:39;8.6;7.5;5.7
72918;PMS7003;61063;55.700;26.994;2022-08-19T03:53:39;8.8;8.2;6.4
72918;PMS7003;61063;55.700;26.994;2022-08-19T03:58:27;9.4;8.7;7.3
72918;PMS7003;61063;55.700;26.994;2022-08-19T04:03:25;11.4;9.8;8
72918;PMS7003;61063;55.700;26.994;2022-08-19T04:07:59;11.4;10.5;8.5
72918;PMS7003;61063;55.700;26.994;2022-08-19T04:13:29;11.2;9.2;7.4
72918;PMS7003;61063;55.700;26.994;2022-08-19T04:18:17;11.6;10.1;8
72918;PMS7003;61063;55.700;26.994;2022-08-19T04:23:25;11.5;9.9;8
72918;PMS7003;61063;55.700;26.994;2022-08-19T04:28:37;14.8;13;9.9
72918;PMS7003;61063;55.700;26.994;2022-08-19T04:33:35;12.4;10.9;8.6
72918;PMS7003;61063;55.700;26.994;2022-08-19T04:38:11;13;11.1;9.2
72918;PMS7003;61063;55.700;26.994;2022-08-19T04:43:37;14.6;12.7;9.9
72918;PMS7003;61063;55.700;26.994;2022-08-19T04:48:37;14.6;12.3;9.6
72918;PMS7003;61063;55.700;26.994;2022-08-19T04:53:37;14;11.9;9.4
72918;PMS7003;61063;55.700;26.994;2022-08-19T04:58:24;13.4;11.8;9.2
72918;PMS7003;61063;55.700;26.994;2022-08-19T05:03:35;14.3;12.2;9.4
72918;PMS7003;61063;55.700;26.994;2022-08-19T05:08:19;15.1;12.6;10
72918;PMS7003;61063;55.700;26.994;2022-08-19T05:13:21;14.6;12.4;9.6
72918;PMS7003;61063;55.700;26.994;2022-08-19T05:18:21;12.1;10.6;8.2
72918;PMS7003;61063;55.700;26.994;2022-08-19T05:23:11;11.8;9.7;7.7
72918;PMS7003;61063;55.700;26.994;2022-08-19T05:28:07;13.2;12.1;9.9
72918;PMS7003;61063;55.700;26.994;2022-08-19T05:33:11;13.1;11.4;9.1
72918;PMS7003;61063;55.700;26.994;2022-08-19T05:38:19;13.9;11.9;9.5
72918;PMS7003;61063;55.700;26.994;2022-08-19T05:43:37;13.4;12;9.4
72918;PMS7003;61063;55.700;26.994;2022-08-19T05:48:27;12.8;11.8;9.4
72918;PMS7003;61063;55.700;26.994;2022-08-19T05:53:21;12.6;11.3;8.7
72918;PMS7003;61063;55.700;26.994;2022-08-19T05:58:21;11.9;11.1;8.6
72918;PMS7003;61063;55.700;26.994;2022-08-19T06:03:23;13.7;12.5;10.1
72918;PMS7003;61063;55.700;26.994;2022-08-19T06:08:33;14.3;13.1;10.2
72918;PMS7003;61063;55.700;26.994;2022-08-19T06:13:19;12.3;11.4;9.4
72918;PMS7003;61063;55.700;26.994;2022-08-19T06:18:35;14.2;12.2;9.8
72918;PMS7003;61063;55.700;26.994;2022-08-19T06:23:35;12;10.2;7.8
72918;PMS7003;61063;55.700;26.994;2022-08-19T06:28:23;13.8;12.4;10
72918;PMS7003;61063;55.700;26.994;2022-08-19T06:33:33;12.8;11.7;9.5
72918;PMS7003;61063;55.700;26.994;2022-08-19T06:38:25;15.3;13.6;10.6
72918;PMS7003;61063;55.700;26.994;2022-08-19T06:43:27;15.5;13.3;10.3
72918;PMS7003;61063;55.700;26.994;2022-08-19T06:48:11;15.1;13.6;10.6
72918;PMS7003;61063;55.700;26.994;2022-08-19T06:53:23;16.3;14.9;11.7
72918;PMS7003;61063;55.700;26.994;2022-08-19T06:58:35;16.2;14;11
72918;PMS7003;61063;55.700;26.994;2022-08-19T07:03:09;16.1;14.2;11.1
72918;PMS7003;61063;55.700;26.994;2022-08-19T07:08:11;15.9;14.2;11.2
72918;PMS7003;61063;55.700;26.994;2022-08-19T07:13:11;15.9;13.4;10.3
72918;PMS7003;61063;55.700;26.994;2022-08-19T07:18:34;17.1;14.5;11.1
72918;PMS7003;61063;55.700;26.994;2022-08-19T07:23:35;15.6;13.9;11.2
72918;PMS7003;61063;55.700;26.994;2022-08-19T07:28:21;15.6;13.8;10.9
72918;PMS7003;61063;55.700;26.994;2022-08-19T07:33:31;15.1;12.8;10
72918;PMS7003;61063;55.700;26.994;2022-08-19T07:38:25;15.9;13.5;10.6
72918;PMS7003;61063;55.700;26.994;2022-08-19T07:43:35;15.5;14;10.7
72918;PMS7003;61063;55.700;26.994;2022-08-19T07:48:11;16.2;14.9;11.5
72918;PMS7003;61063;55.700;26.994;2022-08-19T07:53:07;16.7;15;12
72918;PMS7003;61063;55.700;26.994;2022-08-19T07:58:35;18.3;15.8;12.1
72918;PMS7003;61063;55.700;26.994;2022-08-19T08:03:05;15.5;14.2;10.9
72918;PMS7003;61063;55.700;26.994;2022-08-19T08:08:25;17.7;15.8;12.6
72918;PMS7003;61063;55.700;26.994;2022-08-19T08:13:35;17.6;15.9;12.6
72918;PMS7003;61063;55.700;26.994;2022-08-19T08:18:25;19.3;16.4;12.4
72918;PMS7003;61063;55.700;26.994;2022-08-19T08:23:11;17.9;16.5;12.7
72918;PMS7003;61063;55.700;26.994;2022-08-19T08:28:21;18.3;16.7;13
72918;PMS7003;61063;55.700;26.994;2022-08-19T08:33:33;18.7;16.2;12.5
72918;PMS7003;61063;55.700;26.994;2022-08-19T08:38:36;19.9;17.8;13.7
72918;PMS7003;61063;55.700;26.994;2022-08-19T08:43:22;19.9;17.8;13.6
72918;PMS7003;61063;55.700;26.994;2022-08-19T08:48:52;17.6;15.9;12.5
72918;PMS7003;61063;55.700;26.994;2022-08-19T08:53:13;17.1;15.6;12
72918;PMS7003;61063;55.700;26.994;2022-08-19T08:58:26;15.8;14.3;11.7
72918;PMS7003;61063;55.700;26.994;2022-08-19T09:03:18;16.1;14.9;11.7
72918;PMS7003;61063;55.700;26.994;2022-08-19T09:08:27;16.7;14.8;11.8
72918;PMS7003;61063;55.700;26.994;2022-08-19T09:13:31;16.1;13.7;11.4
72918;PMS7003;61063;55.700;26.994;2022-08-19T09:18:38;14.4;13.1;10.8
72918;PMS7003;61063;55.700;26.994;2022-08-19T09:23:33;16.1;13.3;10.5
72918;PMS7003;61063;55.700;26.994;2022-08-19T09:28:33;15.4;13.9;11.1
72918;PMS7003;61063;55.700;26.994;2022-08-19T09:33:33;15.5;13.7;11.3
72918;PMS7003;61063;55.700;26.994;2022-08-19T09:38:11;13.6;13;10.3
72918;PMS7003;61063;55.700;26.994;2022-08-19T09:43:17;12.9;12.3;9.9
72918;PMS7003;61063;55.700;26.994;2022-08-19T09:48:33;13.8;12.7;10.5
72918;PMS7003;61063;55.700;26.994;2022-08-19T09:53:35;14.4;12.5;10.3
72918;PMS7003;61063;55.700;26.994;2022-08-19T09:58:21;12.5;11.2;8.9
72918;PMS7003;61063;55.700;26.994;2022-08-19T10:03:34;12;11.1;9.1
72918;PMS7003;61063;55.700;26.994;2022-08-19T10:08:28;12.2;10.9;8.8
72918;PMS7003;61063;55.700;26.994;2022-08-19T10:13:11;9.3;8.6;6.9
72918;PMS7003;61063;55.700;26.994;2022-08-19T10:18:35;7.3;6.5;5.4
72918;PMS7003;61063;55.700;26.994;2022-08-19T10:23:19;7.5;6.9;5.7
72918;PMS7003;61063;55.700;26.994;2022-08-19T10:28:11;8.9;7.2;6
72918;PMS7003;61063;55.700;26.994;2022-08-19T10:33:15;8.2;7.2;6.1
72918;PMS7003;61063;55.700;26.994;2022-08-19T10:38:19;8.3;7.2;5.9
72918;PMS7003;61063;55.700;26.994;2022-08-19T10:43:35;8.6;7.4;6.3
72918;PMS7003;61063;55.700;26.994;2022-08-19T10:48:27;10.1;9.1;7.6
72918;PMS7003;61063;55.700;26.994;2022-08-19T10:53:21;11.1;9.7;8.2
72918;PMS7003;61063;55.700;26.994;2022-08-19T10:58:21;9.5;8.8;7.5
72918;PMS7003;61063;55.700;26.994;2022-08-19T11:03:27;8.9;8.1;6.6
72918;PMS7003;61063;55.700;26.994;2022-08-19T11:08:37;8.9;7.3;6
72918;PMS7003;61063;55.700;26.994;2022-08-19T11:13:18;8.1;7;5.9
72918;PMS7003;61063;55.700;26.994;2022-08-19T11:17:59;11.4;8.6;6.2
72918;PMS7003;61063;55.700;26.994;2022-08-19T11:23:11;7.6;6.4;5.7
72918;PMS7003;61063;55.700;26.994;2022-08-19T11:28:25;8.1;6.9;5.3
72918;PMS7003;61063;55.700;26.994;2022-08-19T11:33:17;7.9;7.2;5.9
72918;PMS7003;61063;55.700;26.994;2022-08-19T11:38:23;8.3;6.5;5.3
72918;PMS7003;61063;55.700;26.994;2022-08-19T11:43:28;6.6;5.6;4.7
72918;PMS7003;61063;55.700;26.994;2022-08-19T11:48:27;8.9;7.1;5.6
72918;PMS7003;61063;55.700;26.994;2022-08-19T11:53:21;7.6;6.7;5.5
72918;PMS7003;61063;55.700;26.994;2022-08-19T11:58:33;8.3;6.7;5.7
72918;PMS7003;61063;55.700;26.994;2022-08-19T12:03:20;7.9;6.7;5.6
72918;PMS7003;61063;55.700;26.994;2022-08-19T12:08:17;6.8;6;5.1
72918;PMS7003;61063;55.700;26.994;2022-08-19T12:13:37;7;5.9;5
72918;PMS7003;61063;55.700;26.994;2022-08-19T12:18:37;6.8;5.8;4.9
72918;PMS7003;61063;55.700;26.994;2022-08-19T12:23:37;6;5.4;4.7
72918;PMS7003;61063;55.700;26.994;2022-08-19T12:28:37;6.9;5.7;4.9
72918;PMS7003;61063;55.700;26.994;2022-08-19T12:33:36;6.3;5.3;4.6
72918;PMS7003;61063;55.700;26.994;2022-08-19T12:38:29;7.3;6.1;5.2
72918;PMS7003;61063;55.700;26.994;2022-08-19T12:43:19;7.5;6.4;5.3
72918;PMS7003;61063;55.700;26.994;2022-08-19T12:48:11;8;6.8;5.7
72918;PMS7003;61063;55.700;26.994;2022-08-19T12:53:11;7.9;7;6
72918;PMS7003;61063;55.700;26.994;2022-08-19T12:58:23;8.8;7.7;6.1
72918;PMS7003;61063;55.700;26.994;2022-08-19T13:03:35;8.9;7.8;6.5
72918;PMS7003;61063;55.700;26.994;2022-08-19T13:08:17;11.2;9.3;7
72918;PMS7003;61063;55.700;26.994;2022-08-19T13:13:17;8.6;7.8;6.5
72918;PMS7003;61063;55.700;26.994;2022-08-19T13:18:37;10.1;9.2;7.3
72918;PMS7003;61063;55.700;26.994;2022-08-19T13:23:35;10.3;8.9;7.3
72918;PMS7003;61063;55.700;26.994;2022-08-19T13:28:27;11;9.2;7.3
72918;PMS7003;61063;55.700;26.994;2022-08-19T13:33:33;11.2;9.5;7.6
72918;PMS7003;61063;55.700;26.994;2022-08-19T13:38:37;11.1;9.7;7.5
72918;PMS7003;61063;55.700;26.994;2022-08-19T13:43:37;11.6;9.9;8.4
72918;PMS7003;61063;55.700;26.994;2022-08-19T13:48:37;13.7;11.7;9.5
72918;PMS7003;61063;55.700;26.994;2022-08-19T13:53:11;13.6;12;9.7
72918;PMS7003;61063;55.700;26.994;2022-08-19T13:58:37;13.4;12.8;10.5
72918;PMS7003;61063;55.700;26.994;2022-08-19T14:03:11;15.3;12.8;10.3
72918;PMS7003;61063;55.700;26.994;2022-08-19T14:08:17;14.5;12.5;10
72918;PMS7003;61063;55.700;26.994;2022-08-19T14:13:29;15.4;14;10.8
72918;PMS7003;61063;55.700;26.994;2022-08-19T14:18:35;14.7;13.1;10.6
72918;PMS7003;61063;55.700;26.994;2022-08-19T14:23:27;16.1;14.6;11.4
72918;PMS7003;61063;55.700;26.994;2022-08-19T14:28:23;16.4;13.8;11
72918;PMS7003;61063;55.700;26.994;2022-08-19T14:33:31;17.5;15.2;12
72918;PMS7003;61063;55.700;26.994;2022-08-19T14:38:35;16.2;14.8;11.4
72918;PMS7003;61063;55.700;26.994;2022-08-19T14:43:12;16.4;14.4;11.5
72918;PMS7003;61063;55.700;26.994;2022-08-19T14:48:35;16;14.3;11.3
72918;PMS7003;61063;55.700;26.994;2022-08-19T14:53:27;14.6;13.6;10.8
72918;PMS7003;61063;55.700;26.994;2022-08-19T14:58:35;15.1;14.3;11.5
72918;PMS7003;61063;55.700;26.994;2022-08-19T15:03:11;16.4;13.9;11.1
72918;PMS7003;61063;55.700;26.994;2022-08-19T15:08:25;14.5;13.2;10.5
72918;PMS7003;61063;55.700;26.994;2022-08-19T15:13:33;15.9;13.4;10.9
72918;PMS7003;61063;55.700;26.994;2022-08-19T15:18:19;14;11.8;9.5
72918;PMS7003;61063;55.700;26.994;2022-08-19T15:23:19;14.2;12.3;9.6
72918;PMS7003;61063;55.700;26.994;2022-08-19T15:28:35;13.2;11.7;9.1
72918;PMS7003;61063;55.700;26.994;2022-08-19T15:33:15;12.7;11.4;9
72918;PMS7003;61063;55.700;26.994;2022-08-19T15:38:19;13.7;11.6;9.3
72918;PMS7003;61063;55.700;26.994;2022-08-19T15:43:11;12;10.8;8.6
72918;PMS7003;61063;55.700;26.994;2022-08-19T15:48:33;12.5;11.8;9.5
72918;PMS7003;61063;55.700;26.994;2022-08-19T15:53:35;12;11.1;9.1
72918;PMS7003;61063;55.700;26.994;2022-08-19T15:58:35;12.2;10.8;8.7
72918;PMS7003;61063;55.700;26.994;2022-08-19T16:03:31;10.7;10;7.8
72918;PMS7003;61063;55.700;26.994;2022-08-19T16:08:33;10.8;9.3;7.5
72918;PMS7003;61063;55.700;26.994;2022-08-19T16:13:35;10.4;9.8;7.8
72918;PMS7003;61063;55.700;26.994;2022-08-19T16:18:13;10.1;9.5;7.6
72918;PMS7003;61063;55.700;26.994;2022-08-19T16:23:11;11.5;9.5;7.6
72918;PMS7003;61063;55.700;26.994;2022-08-19T16:28:35;10.8;9.3;7.5
72918;PMS7003;61063;55.700;26.994;2022-08-19T16:33:23;13.1;11.7;9.2
72918;PMS7003;61063;55.700;26.994;2022-08-19T16:38:19;11.4;9.9;7.9
72918;PMS7003;61063;55.700;26.994;2022-08-19T16:43:28;12.6;10.7;8.3
72918;PMS7003;61063;55.700;26.994;2022-08-19T16:48:25;10.3;8.5;7
72918;PMS7003;61063;55.700;26.994;2022-08-19T16:53:20;10.8;9.3;7.1
72918;PMS7003;61063;55.700;26.994;2022-08-19T16:58:25;9.4;8.7;7.1
72918;PMS7003;61063;55.700;26.994;2022-08-19T17:03:33;9;7.8;6.4
72918;PMS7003;61063;55.700;26.994;2022-08-19T17:07:59;10.2;8.1;6.6
72918;PMS7003;61063;55.700;26.994;2022-08-19T17:13:13;18.8;16.5;11.6
72918;PMS7003;61063;55.700;26.994;2022-08-19T17:18:35;28.3;24.6;18
72918;PMS7003;61063;55.700;26.994;2022-08-19T17:23:33;40.8;34.4;24.3
72918;PMS7003;61063;55.700;26.994;2022-08-19T17:28:35;47.8;39.3;27.3
72918;PMS7003;61063;55.700;26.994;2022-08-19T17:33:17;30;26.3;19
72918;PMS7003;61063;55.700;26.994;2022-08-19T17:38:31;16.1;13.9;10.8
72918;PMS7003;61063;55.700;26.994;2022-08-19T17:43:27;10;8.1;6.7
72918;PMS7003;61063;55.700;26.994;2022-08-19T17:48:11;8.5;6.6;5.4
72918;PMS7003;61063;55.700;26.994;2022-08-19T17:53:17;11.2;9.1;7.5
72918;PMS7003;61063;55.700;26.994;2022-08-19T17:58:11;11.6;9.2;7.3
72918;PMS7003;61063;55.700;26.994;2022-08-19T18:03:21;13;10.8;8.3
72918;PMS7003;61063;55.700;26.994;2022-08-19T18:08:19;9.8;9;7.2
72918;PMS7003;61063;55.700;26.994;2022-08-19T18:13:11;11.9;10.3;8.2
72918;PMS7003;61063;55.700;26.994;2022-08-19T18:18:36;11.1;9.6;7.3
72918;PMS7003;61063;55.700;26.994;2022-08-19T18:23:25;23.2;20.3;14.6
72918;PMS7003;61063;55.700;26.994;2022-08-19T18:27:59;14;12.3;9.4
72918;PMS7003;61063;55.700;26.994;2022-08-19T18:33:19;11.3;10.3;8.3
72918;PMS7003;61063;55.700;26.994;2022-08-19T18:38:27;11.2;9.3;7.4
72918;PMS7003;61063;55.700;26.994;2022-08-19T18:43:33;9;8;6.2
72918;PMS7003;61063;55.700;26.994;2022-08-19T18:48:19;14.5;12.3;9.5
72918;PMS7003;61063;55.700;26.994;2022-08-19T18:53:36;13.4;11.1;8.6
72918;PMS7003;61063;55.700;26.994;2022-08-19T18:58:21;8.8;7.4;5.6
72918;PMS7003;61063;55.700;26.994;2022-08-19T19:03:36;6.3;4.4;3.6
72918;PMS7003;61063;55.700;26.994;2022-08-19T19:08:17;6.2;5;4.1
72918;PMS7003;61063;55.700;26.994;2022-08-19T19:13:25;6.8;5.4;4.3
72918;PMS7003;61063;55.700;26.994;2022-08-19T19:18:27;6.5;5.2;4.3
72918;PMS7003;61063;55.700;26.994;2022-08-19T19:23:27;5.7;4.9;4.1
72918;PMS7003;61063;55.700;26.994;2022-08-19T19:28:23;4.7;4;3.3
72918;PMS7003;61063;55.700;26.994;2022-08-19T19:33:31;5.6;4.3;3.6
72918;PMS7003;61063;55.700;26.994;2022-08-19T19:38:09;6.8;5.9;4.8
72918;PMS7003;61063;55.700;26.994;2022-08-19T19:43:35;7.9;6.9;5.8
72918;PMS7003;61063;55.700;26.994;2022-08-19T19:48:19;7.2;6;4.8
72918;PMS7003;61063;55.700;26.994;2022-08-19T19:53:33;6.4;5.4;4.3
72918;PMS7003;61063;55.700;26.994;2022-08-19T19:58:35;5.8;4.7;3.9
72918;PMS7003;61063;55.700;26.994;2022-08-19T20:03:21;5.5;4.5;4
72918;PMS7003;61063;55.700;26.994;2022-08-19T20:08:31;6.2;5.6;4.5
72918;PMS7003;61063;55.700;26.994;2022-08-19T20:13:23;5.9;5.1;4.3
72918;PMS7003;61063;55.700;26.994;2022-08-19T20:18:19;7.2;6.2;4.9
72918;PMS7003;61063;55.700;26.994;2022-08-19T20:23:20;7.5;6.1;5.3
72918;PMS7003;61063;55.700;26.994;2022-08-19T20:28:11;9.1;7.3;5.8
72918;PMS7003;61063;55.700;26.994;2022-08-19T20:33:09;8.4;7.6;6.1
72918;PMS7003;61063;55.700;26.994;2022-08-19T20:38:35;8.8;7.6;6.3
72918;PMS7003;61063;55.700;26.994;2022-08-19T20:43:17;8.7;7.3;6
72918;PMS7003;61063;55.700;26.994;2022-08-19T20:48:35;7.9;6.9;5.6
72918;PMS7003;61063;55.700;26.994;2022-08-19T20:53:25;8.1;6.9;5.7
72918;PMS7003;61063;55.700;26.994;2022-08-19T20:58:20;9.2;7.8;6.3
72918;PMS7003;61063;55.700;26.994;2022-08-19T21:03:20;8.2;6.9;5.6
72918;PMS7003;61063;55.700;26.994;2022-08-19T21:08:27;8.7;7.3;5.8
72918;PMS7003;61063;55.700;26.994;2022-08-19T21:13:33;9.7;8.1;5.9
72918;PMS7003;61063;55.700;26.994;2022-08-19T21:18:35;11;9.7;7.7
72918;PMS7003;61063;55.700;26.994;2022-08-19T21:23:13;12.7;11.4;9
72918;PMS7003;61063;55.700;26.994;2022-08-19T21:28:05;12.8;10.9;9.1
72918;PMS7003;61063;55.700;26.994;2022-08-19T21:33:23;13.3;11.1;8.9
72918;PMS7003;61063;55.700;26.994;2022-08-19T21:38:21;13;11.4;8.8
72918;PMS7003;61063;55.700;26.994;2022-08-19T21:43:18;11.1;10.2;8.3
72918;PMS7003;61063;55.700;26.994;2022-08-19T21:48:25;10;8.3;6.7
72918;PMS7003;61063;55.700;26.994;2022-08-19T21:53:25;9.8;8.4;6.7
72918;PMS7003;61063;55.700;26.994;2022-08-19T21:58:17;8.6;7.9;6.4
72918;PMS7003;61063;55.700;26.994;2022-08-19T22:03:21;9.2;7.7;6.3
72918;PMS7003;61063;55.700;26.994;2022-08-19T22:08:34;9.8;8.5;7.1
72918;PMS7003;61063;55.700;26.994;2022-08-19T22:13:09;9.5;8;6.5
72918;PMS7003;61063;55.700;26.994;2022-08-19T22:18:11;7.1;6;4.8
72918;PMS7003;61063;55.700;26.994;2022-08-19T22:23:33;9.3;8.3;6.6
72918;PMS7003;61063;55.700;26.994;2022-08-19T22:28:26;9.5;8.1;6.5
72918;PMS7003;61063;55.700;26.994;2022-08-19T22:33:18;8.7;7.4;6.2
72918;PMS7003;61063;55.700;26.994;2022-08-19T22:38:21;8.4;7.6;6.3
72918;PMS7003;61063;55.700;26.994;2022-08-19T22:43:27;10;8.4;6.8
72918;PMS7003;61063;55.700;26.994;2022-08-19T22:48:29;9.4;7.8;6.2
72918;PMS7003;61063;55.700;26.994;2022-08-19T22:53:15;12.8;10;7.9
72918;PMS7003;61063;55.700;26.994;2022-08-19T22:58:31;12.4;10.9;8.2
72918;PMS7003;61063;55.700;26.994;2022-08-19T23:03:09;12.9;10.8;8.6
72918;PMS7003;61063;55.700;26.994;2022-08-19T23:08:17;14.5;12.6;10.1
72918;PMS7003;61063;55.700;26.994;2022-08-19T23:13:17;13.8;11.7;9
72918;PMS7003;61063;55.700;26.994;2022-08-19T23:18:17;14.3;12.4;9.9
72918;PMS7003;61063;55.700;26.994;2022-08-19T23:23:31;12.2;10.2;8.1
72918;PMS7003;61063;55.700;26.994;2022-08-19T23:28:31;13.6;12.2;9.2
72918;PMS7003;61063;55.700;26.994;2022-08-19T23:33:41;12.2;9.7;7.5
72918;PMS7003;61063;55.700;26.994;2022-08-19T23:38:29;12.4;11.1;9
72918;PMS7003;61063;55.700;26.994;2022-08-19T23:43:29;13.4;11.4;8.4
72918;PMS7003;61063;55.700;26.994;2022-08-19T23:48:32;11.8;11;8.6
72918;PMS7003;61063;55.700;26.994;2022-08-19T23:53:12;12.2;10.3;7.8
72918;PMS7003;61063;55.700;26.994;2022-08-19T23:58:32;10.8;9.2;7.3
